sensor_id;sensor_type;location;lat;lon;timestamp;temperature;humidity
38325;DHT22;24126;52.672;13.622;2023-08-06T00:01:25;22.80;70.60
38325;DHT22;24126;52.672;13.622;2023-08-06T00:03:52;22.80;70.60
38325;DHT22;24126;52.672;13.622;2023-08-06T00:06:19;22.80;70.60
38325;DHT22;24126;52.672;13.622;2023-08-06T00:08:46;22.80;70.70
38325;DHT22;24126;52.672;13.622;2023-08-06T00:11:13;22.80;70.80
38325;DHT22;24126;52.672;13.622;2023-08-06T00:13:40;22.90;70.90
38325;DHT22;24126;52.672;13.622;2023-08-06T00:16:11;22.90;70.90
38325;DHT22;24126;52.672;13.622;2023-08-06T00:18:38;22.90;70.90
38325;DHT22;24126;52.672;13.622;2023-08-06T00:21:05;22.90;70.90
38325;DHT22;24126;52.672;13.622;2023-08-06T00:23:32;22.90;70.90
38325;DHT22;24126;52.672;13.622;2023-08-06T00:25:59;22.90;70.90
38325;DHT22;24126;52.672;13.622;2023-08-06T00:28:26;22.90;70.90
38325;DHT22;24126;52.672;13.622;2023-08-06T00:30:54;22.90;71.00
38325;DHT22;24126;52.672;13.622;2023-08-06T00:33:21;22.90;71.20
38325;DHT22;24126;52.672;13.622;2023-08-06T00:35:49;22.90;71.10
38325;DHT22;24126;52.672;13.622;2023-08-06T00:38:16;22.90;71.20
38325;DHT22;24126;52.672;13.622;2023-08-06T00:40:43;22.90;71.10
38325;DHT22;24126;52.672;13.622;2023-08-06T00:43:10;22.90;72.00
38325;DHT22;24126;52.672;13.622;2023-08-06T00:45:37;22.90;71.40
38325;DHT22;24126;52.672;13.622;2023-08-06T00:48:04;22.90;71.40
38325;DHT22;24126;52.672;13.622;2023-08-06T00:50:32;22.90;71.40
38325;DHT22;24126;52.672;13.622;2023-08-06T00:52:59;22.90;71.50
38325;DHT22;24126;52.672;13.622;2023-08-06T00:55:26;22.90;71.50
38325;DHT22;24126;52.672;13.622;2023-08-06T00:57:53;22.90;71.60
38325;DHT22;24126;52.672;13.622;2023-08-06T01:00:22;22.90;71.70
38325;DHT22;24126;52.672;13.622;2023-08-06T01:02:49;22.90;71.70
38325;DHT22;24126;52.672;13.622;2023-08-06T01:05:16;22.90;71.90
38325;DHT22;24126;52.672;13.622;2023-08-06T01:10:30;22.80;72.10
38325;DHT22;24126;52.672;13.622;2023-08-06T01:13:06;22.70;72.20
38325;DHT22;24126;52.672;13.622;2023-08-06T01:15:39;22.70;72.50
38325;DHT22;24126;52.672;13.622;2023-08-06T01:18:07;22.60;72.60
38325;DHT22;24126;52.672;13.622;2023-08-06T01:20:35;22.60;72.80
38325;DHT22;24126;52.672;13.622;2023-08-06T01:23:02;22.60;72.80
38325;DHT22;24126;52.672;13.622;2023-08-06T01:25:33;22.60;72.90
38325;DHT22;24126;52.672;13.622;2023-08-06T01:28:04;22.60;73.00
38325;DHT22;24126;52.672;13.622;2023-08-06T01:30:33;22.60;73.10
38325;DHT22;24126;52.672;13.622;2023-08-06T01:33:06;22.60;73.10
38325;DHT22;24126;52.672;13.622;2023-08-06T01:35:36;22.60;73.00
38325;DHT22;24126;52.672;13.622;2023-08-06T01:38:04;22.60;73.20
38325;DHT22;24126;52.672;13.622;2023-08-06T01:40:31;22.60;73.10
38325;DHT22;24126;52.672;13.622;2023-08-06T01:43:00;22.60;73.20
38325;DHT22;24126;52.672;13.622;2023-08-06T01:45:27;22.60;73.40
38325;DHT22;24126;52.672;13.622;2023-08-06T01:47:54;22.60;73.50
38325;DHT22;24126;52.672;13.622;2023-08-06T01:50:23;22.60;73.60
38325;DHT22;24126;52.672;13.622;2023-08-06T01:52:51;22.60;73.70
38325;DHT22;24126;52.672;13.622;2023-08-06T01:55:18;22.60;73.70
38325;DHT22;24126;52.672;13.622;2023-08-06T01:57:45;22.60;73.70
38325;DHT22;24126;52.672;13.622;2023-08-06T02:00:13;22.60;73.60
38325;DHT22;24126;52.672;13.622;2023-08-06T02:02:40;22.60;73.70
38325;DHT22;24126;52.672;13.622;2023-08-06T02:05:07;22.60;73.80
38325;DHT22;24126;52.672;13.622;2023-08-06T02:07:34;22.60;73.80
38325;DHT22;24126;52.672;13.622;2023-08-06T02:10:03;22.60;73.90
38325;DHT22;24126;52.672;13.622;2023-08-06T02:12:30;22.60;73.90
38325;DHT22;24126;52.672;13.622;2023-08-06T02:14:57;22.60;74.00
38325;DHT22;24126;52.672;13.622;2023-08-06T02:17:24;22.60;74.00
38325;DHT22;24126;52.672;13.622;2023-08-06T02:19:51;22.60;74.00
38325;DHT22;24126;52.672;13.622;2023-08-06T02:22:18;22.60;74.10
38325;DHT22;24126;52.672;13.622;2023-08-06T02:24:45;22.60;74.00
38325;DHT22;24126;52.672;13.622;2023-08-06T02:27:12;22.60;74.10
38325;DHT22;24126;52.672;13.622;2023-08-06T02:29:40;22.60;74.20
38325;DHT22;24126;52.672;13.622;2023-08-06T02:32:07;22.50;74.10
38325;DHT22;24126;52.672;13.622;2023-08-06T02:34:34;22.50;74.30
38325;DHT22;24126;52.672;13.622;2023-08-06T02:37:01;22.50;74.20
38325;DHT22;24126;52.672;13.622;2023-08-06T02:39:28;22.50;74.30
38325;DHT22;24126;52.672;13.622;2023-08-06T02:41:58;22.50;74.30
38325;DHT22;24126;52.672;13.622;2023-08-06T02:44:28;22.50;74.30
38325;DHT22;24126;52.672;13.622;2023-08-06T02:46:55;22.50;74.40
38325;DHT22;24126;52.672;13.622;2023-08-06T02:49:22;22.50;74.40
38325;DHT22;24126;52.672;13.622;2023-08-06T02:51:49;22.50;74.50
38325;DHT22;24126;52.672;13.622;2023-08-06T02:54:16;22.50;74.50
38325;DHT22;24126;52.672;13.622;2023-08-06T02:56:43;22.50;74.60
38325;DHT22;24126;52.672;13.622;2023-08-06T02:59:27;22.50;74.60
38325;DHT22;24126;52.672;13.622;2023-08-06T03:02:08;22.50;74.70
38325;DHT22;24126;52.672;13.622;2023-08-06T03:04:44;22.40;74.70
38325;DHT22;24126;52.672;13.622;2023-08-06T03:07:12;22.40;74.70
38325;DHT22;24126;52.672;13.622;2023-08-06T03:09:48;22.40;74.80
38325;DHT22;24126;52.672;13.622;2023-08-06T03:12:14;22.40;74.90
38325;DHT22;24126;52.672;13.622;2023-08-06T03:14:42;22.40;74.90
38325;DHT22;24126;52.672;13.622;2023-08-06T03:17:09;22.40;74.90
38325;DHT22;24126;52.672;13.622;2023-08-06T03:19:37;22.40;75.00
38325;DHT22;24126;52.672;13.622;2023-08-06T03:22:05;22.40;75.00
38325;DHT22;24126;52.672;13.622;2023-08-06T03:24:34;22.30;74.80
38325;DHT22;24126;52.672;13.622;2023-08-06T03:27:01;22.30;74.90
38325;DHT22;24126;52.672;13.622;2023-08-06T03:29:29;22.30;75.00
38325;DHT22;24126;52.672;13.622;2023-08-06T03:31:59;22.30;74.90
38325;DHT22;24126;52.672;13.622;2023-08-06T03:34:27;22.30;75.00
38325;DHT22;24126;52.672;13.622;2023-08-06T03:36:54;22.30;75.10
38325;DHT22;24126;52.672;13.622;2023-08-06T03:39:21;22.30;75.20
38325;DHT22;24126;52.672;13.622;2023-08-06T03:41:48;22.30;75.20
38325;DHT22;24126;52.672;13.622;2023-08-06T03:44:15;22.30;75.30
38325;DHT22;24126;52.672;13.622;2023-08-06T03:46:43;22.20;75.20
38325;DHT22;24126;52.672;13.622;2023-08-06T03:49:10;22.20;75.10
38325;DHT22;24126;52.672;13.622;2023-08-06T03:51:37;22.20;75.30
38325;DHT22;24126;52.672;13.622;2023-08-06T03:54:04;22.20;76.00
38325;DHT22;24126;52.672;13.622;2023-08-06T03:56:31;22.20;75.30
38325;DHT22;24126;52.672;13.622;2023-08-06T03:58:59;22.20;75.30
38325;DHT22;24126;52.672;13.622;2023-08-06T04:01:26;22.20;75.40
38325;DHT22;24126;52.672;13.622;2023-08-06T04:03:53;22.20;75.50
38325;DHT22;24126;52.672;13.622;2023-08-06T04:06:20;22.20;75.60
38325;DHT22;24126;52.672;13.622;2023-08-06T04:08:47;22.20;75.60
38325;DHT22;24126;52.672;13.622;2023-08-06T04:11:15;22.10;75.60
38325;DHT22;24126;52.672;13.622;2023-08-06T04:13:42;22.10;75.60
38325;DHT22;24126;52.672;13.622;2023-08-06T04:16:09;22.10;75.60
38325;DHT22;24126;52.672;13.622;2023-08-06T04:18:36;22.10;75.70
38325;DHT22;24126;52.672;13.622;2023-08-06T04:21:03;22.10;75.70
38325;DHT22;24126;52.672;13.622;2023-08-06T04:23:30;22.10;75.60
38325;DHT22;24126;52.672;13.622;2023-08-06T04:26:02;22.20;75.60
38325;DHT22;24126;52.672;13.622;2023-08-06T04:28:34;22.20;75.70
38325;DHT22;24126;52.672;13.622;2023-08-06T04:31:01;22.20;75.80
38325;DHT22;24126;52.672;13.622;2023-08-06T04:33:31;22.20;75.80
38325;DHT22;24126;52.672;13.622;2023-08-06T04:36:01;22.20;75.80
38325;DHT22;24126;52.672;13.622;2023-08-06T04:38:28;22.20;75.90
38325;DHT22;24126;52.672;13.622;2023-08-06T04:40:56;22.20;75.90
38325;DHT22;24126;52.672;13.622;2023-08-06T04:43:24;22.20;76.00
38325;DHT22;24126;52.672;13.622;2023-08-06T04:45:53;22.20;76.00
38325;DHT22;24126;52.672;13.622;2023-08-06T04:48:20;22.20;76.00
38325;DHT22;24126;52.672;13.622;2023-08-06T04:50:47;22.20;76.00
38325;DHT22;24126;52.672;13.622;2023-08-06T04:53:15;22.20;75.90
38325;DHT22;24126;52.672;13.622;2023-08-06T04:55:42;22.20;75.90
38325;DHT22;24126;52.672;13.622;2023-08-06T04:58:09;22.20;76.00
38325;DHT22;24126;52.672;13.622;2023-08-06T05:00:37;22.20;76.00
38325;DHT22;24126;52.672;13.622;2023-08-06T05:03:04;22.20;76.10
38325;DHT22;24126;52.672;13.622;2023-08-06T05:05:31;22.20;76.10
38325;DHT22;24126;52.672;13.622;2023-08-06T05:07:58;22.10;76.10
38325;DHT22;24126;52.672;13.622;2023-08-06T05:10:25;22.10;76.10
38325;DHT22;24126;52.672;13.622;2023-08-06T05:12:53;22.10;76.10
38325;DHT22;24126;52.672;13.622;2023-08-06T05:15:20;22.20;76.30
38325;DHT22;24126;52.672;13.622;2023-08-06T05:17:47;22.20;76.20
38325;DHT22;24126;52.672;13.622;2023-08-06T05:20:14;22.20;76.10
38325;DHT22;24126;52.672;13.622;2023-08-06T05:22:41;22.20;76.10
38325;DHT22;24126;52.672;13.622;2023-08-06T05:25:08;22.20;76.10
38325;DHT22;24126;52.672;13.622;2023-08-06T05:27:35;22.20;76.00
38325;DHT22;24126;52.672;13.622;2023-08-06T05:30:02;22.20;76.00
38325;DHT22;24126;52.672;13.622;2023-08-06T05:32:30;22.20;76.00
38325;DHT22;24126;52.672;13.622;2023-08-06T05:34:57;22.20;76.00
38325;DHT22;24126;52.672;13.622;2023-08-06T05:37:24;22.30;76.00
38325;DHT22;24126;52.672;13.622;2023-08-06T05:39:51;22.30;75.90
38325;DHT22;24126;52.672;13.622;2023-08-06T05:42:18;22.30;76.20
38325;DHT22;24126;52.672;13.622;2023-08-06T05:44:45;22.30;76.20
38325;DHT22;24126;52.672;13.622;2023-08-06T05:47:12;22.30;76.20
38325;DHT22;24126;52.672;13.622;2023-08-06T05:49:39;22.30;76.20
38325;DHT22;24126;52.672;13.622;2023-08-06T05:52:06;22.30;76.00
38325;DHT22;24126;52.672;13.622;2023-08-06T05:54:34;22.30;75.90
38325;DHT22;24126;52.672;13.622;2023-08-06T05:57:01;22.30;75.90
38325;DHT22;24126;52.672;13.622;2023-08-06T05:59:28;22.30;75.80
38325;DHT22;24126;52.672;13.622;2023-08-06T06:01:55;22.40;76.00
38325;DHT22;24126;52.672;13.622;2023-08-06T06:04:22;22.40;75.90
38325;DHT22;24126;52.672;13.622;2023-08-06T06:06:49;22.40;75.80
38325;DHT22;24126;52.672;13.622;2023-08-06T06:09:16;22.40;75.80
38325;DHT22;24126;52.672;13.622;2023-08-06T06:11:43;22.40;75.70
38325;DHT22;24126;52.672;13.622;2023-08-06T06:14:10;22.40;75.70
38325;DHT22;24126;52.672;13.622;2023-08-06T06:16:37;22.40;75.70
38325;DHT22;24126;52.672;13.622;2023-08-06T06:19:04;22.50;75.80
38325;DHT22;24126;52.672;13.622;2023-08-06T06:21:31;22.50;75.70
38325;DHT22;24126;52.672;13.622;2023-08-06T06:23:58;22.50;75.80
38325;DHT22;24126;52.672;13.622;2023-08-06T06:26:25;22.50;75.80
38325;DHT22;24126;52.672;13.622;2023-08-06T06:28:52;22.50;75.80
38325;DHT22;24126;52.672;13.622;2023-08-06T06:31:19;22.50;76.50
38325;DHT22;24126;52.672;13.622;2023-08-06T06:33:46;22.50;75.90
38325;DHT22;24126;52.672;13.622;2023-08-06T06:36:13;22.60;76.00
38325;DHT22;24126;52.672;13.622;2023-08-06T06:38:40;22.60;76.00
38325;DHT22;24126;52.672;13.622;2023-08-06T06:41:07;22.60;76.00
38325;DHT22;24126;52.672;13.622;2023-08-06T06:43:35;22.60;76.00
38325;DHT22;24126;52.672;13.622;2023-08-06T06:46:03;22.60;75.90
38325;DHT22;24126;52.672;13.622;2023-08-06T06:48:31;22.60;75.90
38325;DHT22;24126;52.672;13.622;2023-08-06T06:50:58;22.60;75.80
38325;DHT22;24126;52.672;13.622;2023-08-06T06:53:25;22.60;75.80
38325;DHT22;24126;52.672;13.622;2023-08-06T06:55:54;22.70;75.90
38325;DHT22;24126;52.672;13.622;2023-08-06T06:58:21;22.60;75.70
38325;DHT22;24126;52.672;13.622;2023-08-06T07:00:48;22.70;75.80
38325;DHT22;24126;52.672;13.622;2023-08-06T07:03:15;22.70;75.90
38325;DHT22;24126;52.672;13.622;2023-08-06T07:05:42;22.70;75.90
38325;DHT22;24126;52.672;13.622;2023-08-06T07:08:09;22.70;75.90
38325;DHT22;24126;52.672;13.622;2023-08-06T07:10:37;22.70;75.90
38325;DHT22;24126;52.672;13.622;2023-08-06T07:13:04;22.70;75.90
38325;DHT22;24126;52.672;13.622;2023-08-06T07:15:31;22.70;75.90
38325;DHT22;24126;52.672;13.622;2023-08-06T07:17:58;22.80;76.00
38325;DHT22;24126;52.672;13.622;2023-08-06T07:20:25;22.80;75.90
38325;DHT22;24126;52.672;13.622;2023-08-06T07:22:55;22.80;75.90
38325;DHT22;24126;52.672;13.622;2023-08-06T07:25:22;22.80;75.90
38325;DHT22;24126;52.672;13.622;2023-08-06T07:27:49;22.80;75.80
38325;DHT22;24126;52.672;13.622;2023-08-06T07:30:16;22.80;75.90
38325;DHT22;24126;52.672;13.622;2023-08-06T07:32:43;22.80;75.90
38325;DHT22;24126;52.672;13.622;2023-08-06T07:35:10;22.80;75.90
38325;DHT22;24126;52.672;13.622;2023-08-06T07:37:38;22.80;75.90
38325;DHT22;24126;52.672;13.622;2023-08-06T07:40:06;22.90;75.90
38325;DHT22;24126;52.672;13.622;2023-08-06T07:42:34;22.90;75.90
38325;DHT22;24126;52.672;13.622;2023-08-06T07:45:02;22.90;76.00
38325;DHT22;24126;52.672;13.622;2023-08-06T07:47:29;22.90;76.00
38325;DHT22;24126;52.672;13.622;2023-08-06T07:49:56;23.00;76.00
38325;DHT22;24126;52.672;13.622;2023-08-06T07:52:23;23.00;76.00
38325;DHT22;24126;52.672;13.622;2023-08-06T07:54:55;23.00;76.20
38325;DHT22;24126;52.672;13.622;2023-08-06T07:57:22;23.00;76.40
38325;DHT22;24126;52.672;13.622;2023-08-06T07:59:49;23.00;76.40
38325;DHT22;24126;52.672;13.622;2023-08-06T08:02:16;23.00;76.30
38325;DHT22;24126;52.672;13.622;2023-08-06T08:04:43;23.00;76.20
38325;DHT22;24126;52.672;13.622;2023-08-06T08:07:13;23.10;76.10
38325;DHT22;24126;52.672;13.622;2023-08-06T08:09:40;23.10;75.90
38325;DHT22;24126;52.672;13.622;2023-08-06T08:12:07;23.20;75.80
38325;DHT22;24126;52.672;13.622;2023-08-06T08:14:34;23.20;75.70
38325;DHT22;24126;52.672;13.622;2023-08-06T08:17:02;23.20;75.40
38325;DHT22;24126;52.672;13.622;2023-08-06T08:19:29;23.30;75.50
38325;DHT22;24126;52.672;13.622;2023-08-06T08:21:56;23.30;75.40
38325;DHT22;24126;52.672;13.622;2023-08-06T08:24:23;23.30;75.50
38325;DHT22;24126;52.672;13.622;2023-08-06T08:26:51;23.40;75.70
38325;DHT22;24126;52.672;13.622;2023-08-06T08:29:21;23.30;75.70
38325;DHT22;24126;52.672;13.622;2023-08-06T08:31:49;23.40;75.80
38325;DHT22;24126;52.672;13.622;2023-08-06T08:34:16;23.40;75.70
38325;DHT22;24126;52.672;13.622;2023-08-06T08:36:43;23.40;75.60
38325;DHT22;24126;52.672;13.622;2023-08-06T08:39:13;23.40;75.70
38325;DHT22;24126;52.672;13.622;2023-08-06T08:41:40;23.40;75.80
38325;DHT22;24126;52.672;13.622;2023-08-06T08:44:10;23.40;75.70
38325;DHT22;24126;52.672;13.622;2023-08-06T08:46:38;23.40;75.90
38325;DHT22;24126;52.672;13.622;2023-08-06T08:49:06;23.50;76.00
38325;DHT22;24126;52.672;13.622;2023-08-06T08:51:34;23.50;76.00
38325;DHT22;24126;52.672;13.622;2023-08-06T08:54:02;23.40;76.00
38325;DHT22;24126;52.672;13.622;2023-08-06T08:56:30;23.40;76.10
38325;DHT22;24126;52.672;13.622;2023-08-06T08:58:57;23.40;76.10
38325;DHT22;24126;52.672;13.622;2023-08-06T09:01:25;23.40;76.30
38325;DHT22;24126;52.672;13.622;2023-08-06T09:03:53;23.40;76.40
38325;DHT22;24126;52.672;13.622;2023-08-06T09:06:21;23.40;76.30
38325;DHT22;24126;52.672;13.622;2023-08-06T09:08:58;23.50;76.20
38325;DHT22;24126;52.672;13.622;2023-08-06T09:11:26;23.40;76.30
38325;DHT22;24126;52.672;13.622;2023-08-06T09:13:53;23.40;76.20
38325;DHT22;24126;52.672;13.622;2023-08-06T09:16:20;23.50;76.30
38325;DHT22;24126;52.672;13.622;2023-08-06T09:18:47;23.50;76.30
38325;DHT22;24126;52.672;13.622;2023-08-06T09:21:14;23.50;76.30
38325;DHT22;24126;52.672;13.622;2023-08-06T09:23:42;23.50;77.10
38325;DHT22;24126;52.672;13.622;2023-08-06T09:26:11;23.50;76.20
38325;DHT22;24126;52.672;13.622;2023-08-06T09:28:38;23.50;76.10
38325;DHT22;24126;52.672;13.622;2023-08-06T09:31:08;23.50;76.20
38325;DHT22;24126;52.672;13.622;2023-08-06T09:33:38;23.50;76.30
38325;DHT22;24126;52.672;13.622;2023-08-06T09:36:09;23.50;76.10
38325;DHT22;24126;52.672;13.622;2023-08-06T09:38:40;23.50;76.20
38325;DHT22;24126;52.672;13.622;2023-08-06T09:41:07;23.50;76.10
38325;DHT22;24126;52.672;13.622;2023-08-06T09:43:40;23.50;76.20
38325;DHT22;24126;52.672;13.622;2023-08-06T09:46:12;23.60;76.30
38325;DHT22;24126;52.672;13.622;2023-08-06T09:48:40;23.60;76.10
38325;DHT22;24126;52.672;13.622;2023-08-06T09:51:08;23.60;76.00
38325;DHT22;24126;52.672;13.622;2023-08-06T09:53:35;23.60;75.80
38325;DHT22;24126;52.672;13.622;2023-08-06T09:56:03;23.60;75.60
38325;DHT22;24126;52.672;13.622;2023-08-06T09:58:31;23.60;75.60
38325;DHT22;24126;52.672;13.622;2023-08-06T10:01:01;23.60;75.50
38325;DHT22;24126;52.672;13.622;2023-08-06T10:03:29;23.60;75.60
38325;DHT22;24126;52.672;13.622;2023-08-06T10:05:57;23.60;75.40
38325;DHT22;24126;52.672;13.622;2023-08-06T10:08:24;23.60;75.50
38325;DHT22;24126;52.672;13.622;2023-08-06T10:10:51;23.60;75.40
38325;DHT22;24126;52.672;13.622;2023-08-06T10:13:19;23.60;75.30
38325;DHT22;24126;52.672;13.622;2023-08-06T10:15:48;23.60;75.20
38325;DHT22;24126;52.672;13.622;2023-08-06T10:18:15;23.50;75.30
38325;DHT22;24126;52.672;13.622;2023-08-06T10:20:46;23.50;75.60
38325;DHT22;24126;52.672;13.622;2023-08-06T10:23:14;23.50;75.70
38325;DHT22;24126;52.672;13.622;2023-08-06T10:25:41;23.50;75.70
38325;DHT22;24126;52.672;13.622;2023-08-06T10:28:09;23.50;75.90
38325;DHT22;24126;52.672;13.622;2023-08-06T10:30:45;23.50;75.90
38325;DHT22;24126;52.672;13.622;2023-08-06T10:33:13;23.50;75.70
38325;DHT22;24126;52.672;13.622;2023-08-06T10:35:43;23.50;75.20
38325;DHT22;24126;52.672;13.622;2023-08-06T10:38:11;23.50;75.30
38325;DHT22;24126;52.672;13.622;2023-08-06T10:40:39;23.50;75.30
38325;DHT22;24126;52.672;13.622;2023-08-06T10:43:06;23.50;75.30
38325;DHT22;24126;52.672;13.622;2023-08-06T10:45:36;23.50;75.20
38325;DHT22;24126;52.672;13.622;2023-08-06T10:48:04;23.40;75.20
38325;DHT22;24126;52.672;13.622;2023-08-06T10:50:31;23.40;75.20
38325;DHT22;24126;52.672;13.622;2023-08-06T10:53:00;23.40;75.30
38325;DHT22;24126;52.672;13.622;2023-08-06T10:55:30;23.40;75.10
38325;DHT22;24126;52.672;13.622;2023-08-06T10:57:57;23.40;74.80
38325;DHT22;24126;52.672;13.622;2023-08-06T11:00:24;23.40;75.00
38325;DHT22;24126;52.672;13.622;2023-08-06T11:02:52;23.40;75.10
38325;DHT22;24126;52.672;13.622;2023-08-06T11:05:19;23.40;75.30
38325;DHT22;24126;52.672;13.622;2023-08-06T11:07:46;23.40;75.30
38325;DHT22;24126;52.672;13.622;2023-08-06T11:10:15;23.40;75.30
38325;DHT22;24126;52.672;13.622;2023-08-06T11:12:42;23.40;75.50
38325;DHT22;24126;52.672;13.622;2023-08-06T11:15:09;23.50;75.70
38325;DHT22;24126;52.672;13.622;2023-08-06T11:17:37;23.50;75.60
38325;DHT22;24126;52.672;13.622;2023-08-06T11:20:06;23.40;75.60
38325;DHT22;24126;52.672;13.622;2023-08-06T11:22:33;23.50;75.70
38325;DHT22;24126;52.672;13.622;2023-08-06T11:25:00;23.50;75.80
38325;DHT22;24126;52.672;13.622;2023-08-06T11:27:28;23.50;75.70
38325;DHT22;24126;52.672;13.622;2023-08-06T11:29:55;23.50;75.80
38325;DHT22;24126;52.672;13.622;2023-08-06T11:32:22;23.50;75.70
38325;DHT22;24126;52.672;13.622;2023-08-06T11:34:50;23.50;75.90
38325;DHT22;24126;52.672;13.622;2023-08-06T11:37:20;23.50;76.00
38325;DHT22;24126;52.672;13.622;2023-08-06T11:39:47;23.50;76.10
38325;DHT22;24126;52.672;13.622;2023-08-06T11:42:15;23.60;76.20
38325;DHT22;24126;52.672;13.622;2023-08-06T11:44:42;23.60;76.20
38325;DHT22;24126;52.672;13.622;2023-08-06T11:47:15;23.60;76.10
38325;DHT22;24126;52.672;13.622;2023-08-06T11:52:13;23.60;76.20
38325;DHT22;24126;52.672;13.622;2023-08-06T11:54:40;23.60;75.70
38325;DHT22;24126;52.672;13.622;2023-08-06T11:57:08;23.60;75.60
38325;DHT22;24126;52.672;13.622;2023-08-06T11:59:36;23.60;75.60
38325;DHT22;24126;52.672;13.622;2023-08-06T12:02:03;23.60;75.70
38325;DHT22;24126;52.672;13.622;2023-08-06T12:04:32;23.60;75.70
38325;DHT22;24126;52.672;13.622;2023-08-06T12:07:05;23.60;75.80
38325;DHT22;24126;52.672;13.622;2023-08-06T12:09:33;23.70;75.90
38325;DHT22;24126;52.672;13.622;2023-08-06T12:12:02;23.70;75.80
38325;DHT22;24126;52.672;13.622;2023-08-06T12:14:30;23.70;75.80
38325;DHT22;24126;52.672;13.622;2023-08-06T12:16:57;23.70;75.90
38325;DHT22;24126;52.672;13.622;2023-08-06T12:19:24;23.70;75.90
38325;DHT22;24126;52.672;13.622;2023-08-06T12:21:53;23.70;75.90
38325;DHT22;24126;52.672;13.622;2023-08-06T12:24:20;23.70;75.90
38325;DHT22;24126;52.672;13.622;2023-08-06T12:26:47;23.70;76.00
38325;DHT22;24126;52.672;13.622;2023-08-06T12:29:14;23.80;76.00
38325;DHT22;24126;52.672;13.622;2023-08-06T12:31:41;23.80;75.50
38325;DHT22;24126;52.672;13.622;2023-08-06T12:34:08;23.70;75.50
38325;DHT22;24126;52.672;13.622;2023-08-06T12:36:35;23.70;75.40
38325;DHT22;24126;52.672;13.622;2023-08-06T12:39:02;23.70;75.20
38325;DHT22;24126;52.672;13.622;2023-08-06T12:41:29;23.70;75.30
38325;DHT22;24126;52.672;13.622;2023-08-06T12:43:56;23.60;75.30
38325;DHT22;24126;52.672;13.622;2023-08-06T12:46:23;23.60;75.40
38325;DHT22;24126;52.672;13.622;2023-08-06T12:48:51;23.60;75.30
38325;DHT22;24126;52.672;13.622;2023-08-06T12:51:18;23.60;75.20
38325;DHT22;24126;52.672;13.622;2023-08-06T12:53:46;23.60;75.20
38325;DHT22;24126;52.672;13.622;2023-08-06T12:56:13;23.60;75.50
38325;DHT22;24126;52.672;13.622;2023-08-06T12:58:41;23.60;75.40
38325;DHT22;24126;52.672;13.622;2023-08-06T13:01:08;23.60;75.50
38325;DHT22;24126;52.672;13.622;2023-08-06T13:03:35;23.60;75.60
38325;DHT22;24126;52.672;13.622;2023-08-06T13:06:02;23.60;75.50
38325;DHT22;24126;52.672;13.622;2023-08-06T13:08:29;23.60;75.40
38325;DHT22;24126;52.672;13.622;2023-08-06T13:10:56;23.60;75.50
38325;DHT22;24126;52.672;13.622;2023-08-06T13:13:23;23.60;75.30
38325;DHT22;24126;52.672;13.622;2023-08-06T13:15:56;23.50;75.30
38325;DHT22;24126;52.672;13.622;2023-08-06T13:18:23;23.50;75.40
38325;DHT22;24126;52.672;13.622;2023-08-06T13:20:51;23.50;75.40
38325;DHT22;24126;52.672;13.622;2023-08-06T13:23:20;23.50;75.40
38325;DHT22;24126;52.672;13.622;2023-08-06T13:25:47;23.50;75.70
38325;DHT22;24126;52.672;13.622;2023-08-06T13:28:14;23.40;75.80
38325;DHT22;24126;52.672;13.622;2023-08-06T13:30:41;23.40;75.60
38325;DHT22;24126;52.672;13.622;2023-08-06T13:33:08;23.40;75.80
38325;DHT22;24126;52.672;13.622;2023-08-06T13:35:36;23.40;75.50
38325;DHT22;24126;52.672;13.622;2023-08-06T13:38:03;23.40;75.50
38325;DHT22;24126;52.672;13.622;2023-08-06T13:40:31;23.40;75.50
38325;DHT22;24126;52.672;13.622;2023-08-06T13:42:59;23.40;75.60
38325;DHT22;24126;52.672;13.622;2023-08-06T13:45:26;23.40;75.60
38325;DHT22;24126;52.672;13.622;2023-08-06T13:47:54;23.30;75.40
38325;DHT22;24126;52.672;13.622;2023-08-06T13:50:21;23.30;75.60
38325;DHT22;24126;52.672;13.622;2023-08-06T13:52:51;23.30;75.70
38325;DHT22;24126;52.672;13.622;2023-08-06T13:55:21;23.30;75.70
38325;DHT22;24126;52.672;13.622;2023-08-06T13:57:48;23.30;75.90
38325;DHT22;24126;52.672;13.622;2023-08-06T14:00:15;23.30;76.00
38325;DHT22;24126;52.672;13.622;2023-08-06T14:02:42;23.30;76.20
38325;DHT22;24126;52.672;13.622;2023-08-06T14:05:10;23.30;76.20
38325;DHT22;24126;52.672;13.622;2023-08-06T14:07:38;23.30;75.90
38325;DHT22;24126;52.672;13.622;2023-08-06T14:10:05;23.30;75.80
38325;DHT22;24126;52.672;13.622;2023-08-06T14:12:32;23.30;75.80
38325;DHT22;24126;52.672;13.622;2023-08-06T14:14:59;23.30;76.00
38325;DHT22;24126;52.672;13.622;2023-08-06T14:17:28;23.30;76.00
38325;DHT22;24126;52.672;13.622;2023-08-06T14:19:55;23.30;76.00
38325;DHT22;24126;52.672;13.622;2023-08-06T14:22:22;23.30;76.00
38325;DHT22;24126;52.672;13.622;2023-08-06T14:24:49;23.30;75.90
38325;DHT22;24126;52.672;13.622;2023-08-06T14:27:16;23.30;75.90
38325;DHT22;24126;52.672;13.622;2023-08-06T14:29:43;23.30;75.80
38325;DHT22;24126;52.672;13.622;2023-08-06T14:32:10;23.30;75.70
38325;DHT22;24126;52.672;13.622;2023-08-06T14:34:37;23.30;75.70
38325;DHT22;24126;52.672;13.622;2023-08-06T14:37:04;23.20;75.30
38325;DHT22;24126;52.672;13.622;2023-08-06T14:39:31;23.20;75.10
38325;DHT22;24126;52.672;13.622;2023-08-06T14:41:58;23.20;74.90
38325;DHT22;24126;52.672;13.622;2023-08-06T14:44:25;23.20;74.80
38325;DHT22;24126;52.672;13.622;2023-08-06T14:46:52;23.10;74.60
38325;DHT22;24126;52.672;13.622;2023-08-06T14:49:20;23.10;74.70
38325;DHT22;24126;52.672;13.622;2023-08-06T14:51:47;23.00;74.50
38325;DHT22;24126;52.672;13.622;2023-08-06T14:54:14;23.00;74.50
38325;DHT22;24126;52.672;13.622;2023-08-06T14:56:41;23.00;74.60
38325;DHT22;24126;52.672;13.622;2023-08-06T14:59:08;22.90;74.70
38325;DHT22;24126;52.672;13.622;2023-08-06T15:01:35;23.00;74.80
38325;DHT22;24126;52.672;13.622;2023-08-06T15:04:03;22.90;75.40
38325;DHT22;24126;52.672;13.622;2023-08-06T15:06:30;22.90;74.70
38325;DHT22;24126;52.672;13.622;2023-08-06T15:08:57;22.90;74.50
38325;DHT22;24126;52.672;13.622;2023-08-06T15:11:26;22.90;74.50
38325;DHT22;24126;52.672;13.622;2023-08-06T15:13:53;22.90;74.40
38325;DHT22;24126;52.672;13.622;2023-08-06T15:16:20;22.80;74.50
38325;DHT22;24126;52.672;13.622;2023-08-06T15:18:48;22.90;74.60
38325;DHT22;24126;52.672;13.622;2023-08-06T15:21:15;22.90;74.60
38325;DHT22;24126;52.672;13.622;2023-08-06T15:23:43;22.80;74.50